Tiempo atmosférico en la estación meteorológica de La Puebla De Los Infantes, Sevilla (200 m.)



Fecha
DESCASC
Temp. máxima en grados centígrados (hora)
DESCASC
Temp. mínima en grados centígrados (hora)
DESCASC
Temp. media en grados centígrados
DESCASC
Racha de viento máxima en m/sg (hora)
DESCASC
Velocidad máxima media en intervalos de 10 minutos(hora)
DESCASC
Precipitaciones diarias en mm
DESCASC
Precipitaciones de 00:00 a 06:00 en mm
DESCASC
Precipitaciones de 06:00 a 12:00 en mm
DESCASC
Precipitaciones de 12:00 a 18:00 en mm
DESCASC
Precipitaciones de 18:00 a 24:00 en mm
DESCASC
29-10-2020 25.8 (16:00) 9.5 (07:30) 17.6 7.22 (13:30) 4.44 (13:30) 0 0 0 0 0
28-10-2020 22.8 (15:40) 6.2 (07:30) 14.5 5.28 (14:00) 3.33 (14:00) 0 0 0 0 0
27-10-2020 19.8 (16:40) 3.6 (00:00) 11.7 4.44 (12:30) 1.94 (12:50) 0 0 0 0 0
26-10-2020 18.6 (15:00) 5.8 (00:00) 12.2 8.89 (11:40) 5 (11:20) 0 0 0 0 0
25-10-2020 18.8 (16:00) 7.8 (00:00) 13.3 12.78 (19:40) 7.22 (19:50) 4 0 0 0 4
24-10-2020 20.1 (17:10) 6.6 (00:00) 13.4 5.56 (17:10) 2.78 (17:20) 0.2 0 0 0.2 0
23-10-2020 20.4 (17:40) 8.6 (00:00) 14.5 6.39 (17:50) 3.61 (18:40) 1.6 0.2 0.2 0 1.2
22-10-2020 17.8 (02:10) 14.3 (00:00) 16 5.83 (02:20) 3.33 (02:20) 39 1.2 3.2 34 0.6
21-10-2020 21.2 (17:20) 16.3 (00:00) 18.8 11.11 (00:30) 5 (01:10) 14.8 11.8 3 0 0
20-10-2020 25.5 (14:50) 15.1 (00:00) 20.3 18.61 (22:10) 8.61 (18:30) 17.2 0 0 0 17.2
19-10-2020 29.5 (17:00) 4.7 (00:00) 17.1 9.72 (15:30) 6.11 (14:30) 0 0 0 0 0
18-10-2020 26 (16:50) 1.5 (00:00) 13.8 8.33 (11:30) 5.28 (11:30) 0 0 0 0 0
17-10-2020 23.6 (16:50) 0.7 (00:00) 12.2 5.56 (17:00) 2.78 (13:40) 0 0 0 0 0
16-10-2020 23.8 (16:40) 0.7 (00:00) 12.2 7.78 (12:40) 4.44 (12:40) 0 0 0 0 0
15-10-2020 -- (--) -- (--) -- -- (--) -- (--) 0 0 0 0 0
14-10-2020 24.3 (16:30) 5.1 (00:00) 14.7 11.11 (15:30) 4.72 (15:30) 0 0 0 0 0
13-10-2020 27.9 (16:30) 2.5 (00:00) 15.2 5.83 (18:40) 2.78 (17:40) 0 0 0 0 0
12-10-2020 25.3 (16:40) 7.2 (00:00) 16.2 8.33 (12:00) 5 (10:50) 0 0 0 0 0
11-10-2020 29 (16:50) 7.5 (00:00) 18.3 8.06 (11:50) 5.28 (11:50) 0 0 0 0 0
10-10-2020 31.7 (17:40) 8.6 (00:00) 20.2 5 (18:40) 2.78 (18:40) 0 0 0 0 0
09-10-2020 30.8 (18:20) 8.6 (00:00) 19.7 6.11 (12:30) 3.06 (12:30) 0 0 0 0 0
08-10-2020 32.3 (16:50) 8.1 (00:00) 20.2 7.22 (15:30) 3.89 (12:50) 0 0 0 0 0
07-10-2020 32 (17:10) 9.5 (00:00) 20.8 7.22 (14:00) 4.72 (13:30) 0 0 0 0 0
06-10-2020 28.5 (17:50) 8.1 (00:00) 18.3 5.83 (13:40) 3.33 (12:10) 0 0 0 0 0
05-10-2020 25.7 (16:10) 10.8 (00:00) 18.3 9.17 (16:50) 5 (10:50) 0 0 0 0 0
04-10-2020 24.7 (18:20) 4.4 (00:00) 14.6 9.17 (15:40) 5 (18:30) 0 0 0 0 0
03-10-2020 23.5 (16:30) 4.2 (00:00) 13.8 11.11 (14:10) 5.28 (11:50) 0 0 0 0 0
02-10-2020 21.1 (14:30) 11.9 (00:00) 16.5 16.39 (14:00) 9.17 (13:50) 5 0 0 5 0
01-10-2020 29.7 (18:00) 8.1 (08:20) 18.9 9.44 (18:20) 5.56 (17:30) 0 0 0 0 0

Gráficas

Temp. máximas Temp. mínimas Temp. medias Precipitaciones Rachas de viento máximas Velocidades máximas media en intervalos de 10 minutos

Datos horarios

Fecha y hora oficial Temperatura (ºC) Velocidad del viento (km/h) Dirección del viento Racha (km/h) Dirección de racha Precipitación (mm) Presión (hPa) Tendencia (hPa) Humedad (%)
2020-10-30 23:00:00 11.4 0 Calma 3 Noroeste 0 -- -- 87
2020-10-30 22:00:00 12.3 0 Calma 4 Norte 0 -- -- 85
2020-10-30 21:00:00 13.4 0 Calma 4 Oeste 0 -- -- 83
2020-10-30 20:00:00 15.2 0 Calma 3 Noroeste 0 -- -- 76
2020-10-30 19:00:00 18.4 0 Calma 4 Noroeste 0 -- -- 68
2020-10-30 18:00:00 22.8 0 Calma 6 Nordeste 0 -- -- 57
2020-10-30 17:00:00 25.1 2 Nordeste 7 Sudeste 0 -- -- 42
2020-10-30 16:00:00 24.6 5 Sudeste 14 Sudeste 0 -- -- 44
2020-10-30 15:00:00 25.6 9 Sudeste 17 Sur 0 -- -- 40
2020-10-30 14:00:00 24.6 10 Nordeste 17 Este 0 -- -- 44
2020-10-30 13:00:00 23.3 10 Este 21 Este 0 -- -- 50
2020-10-30 12:00:00 21.5 12 Este 22 Este 0 -- -- 55
2020-10-30 11:00:00 20 12 Este 20 Este 0 -- -- 62
2020-10-30 10:00:00 17 4 Este 7 Este 0 -- -- 75
2020-10-30 09:00:00 10 0 Calma 3 Oeste 0 -- -- 98
2020-10-30 08:00:00 6.6 0 Calma 4 Norte 0 -- -- 95
2020-10-30 07:00:00 6.8 0 Calma 2 Norte 0 -- -- 94
2020-10-30 06:00:00 7.2 0 Calma 5 Noroeste 0 -- -- 94
2020-10-30 05:00:00 7.6 0 Calma 2 Oeste 0 -- -- 93
2020-10-30 04:00:00 8.1 0 Calma 3 Norte 0 -- -- 93
2020-10-30 03:00:00 8.4 0 Calma 3 Norte 0 -- -- 91
2020-10-30 02:00:00 9 0 Calma 2 Noroeste 0 -- -- 92
2020-10-30 01:00:00 9.4 0 Calma 4 Norte 0 -- -- 89
2020-10-30 00:00:00 10.1 2 Norte 3 Norte 0 -- -- 89
2020-10-29 23:00:00 11 2 Oeste 3 Norte 0 -- -- 87
2020-10-29 22:00:00 11.9 0 Calma 5 Norte 0 -- -- 85
2020-10-29 21:00:00 13.4 0 Calma 6 Norte 0 -- -- 82
2020-10-29 20:00:00 15.3 0 Calma 5 Sur 0 -- -- 77
2020-10-29 19:00:00 18.7 2 Noroeste 4 Este 0 -- -- 66
2020-10-29 18:00:00 23.7 5 Este 15 Este 0 -- -- 46
2020-10-29 17:00:00 25.3 8 Este 20 Este 0 -- -- 38
2020-10-29 16:00:00 25.8 7 Sudeste 16 Sudeste 0 -- -- 43
2020-10-29 15:00:00 25.1 10 Este 21 Nordeste 0 -- -- 41
2020-10-29 14:00:00 23.9 14 Este 26 Este 0 -- -- 48
2020-10-29 13:00:00 22.9 11 Este 22 Este 0 -- -- 56
2020-10-29 12:00:00 21.5 12 Este 21 Este 0 -- -- 64
2020-10-29 11:00:00 20.3 13 Este 18 Este 0 -- -- 65
2020-10-29 10:00:00 18 5 Este 9 Nordeste 0 -- -- 76
2020-10-29 09:00:00 13.1 2 Sur 4 Sur 0 -- -- 98
2020-10-29 08:00:00 9.6 0 Calma 4 Sur 0 -- -- 95
2020-10-29 07:00:00 9.9 0 Calma 5 Sur 0 -- -- 95
2020-10-29 06:00:00 10.1 2 Sudeste 4 Sudeste 0 -- -- 93
2020-10-29 05:00:00 10.6 0 Calma 3 Sur 0 -- -- 93
2020-10-29 04:00:00 11.7 0 Calma 3 Sudoeste 0 -- -- 91
2020-10-29 03:00:00 13.4 2 Oeste 13 Norte 0 -- -- 86
2020-10-29 02:00:00 15.6 2 Norte 12 Norte 0 -- -- 81
2020-10-29 01:00:00 15.2 3 Noroeste 10 Norte 0 -- -- 82
2020-10-29 00:00:00 15.4 4 Sudoeste 9 Sudoeste 0 -- -- 83
2020-10-28 23:00:00 14.9 4 Sudoeste 9 Sudoeste 0 -- -- 87
2020-10-28 22:00:00 12.3 2 Sudoeste 5 Sudoeste 0 -- -- 91
2020-10-28 21:00:00 12.8 0 Calma 3 Noroeste 0 -- -- 86
2020-10-28 20:00:00 14.6 0 Calma 6 Noroeste 0 -- -- 83
2020-10-28 19:00:00 17.2 0 Calma 5 Sudeste 0 -- -- 75
2020-10-28 18:00:00 20.9 4 Sudeste 9 Sudeste 0 -- -- 62
2020-10-28 17:00:00 22 4 Sudeste 12 Sudeste 0 -- -- 58
2020-10-28 16:00:00 22.4 8 Sudeste 13 Sudeste 0 -- -- 56
2020-10-28 15:00:00 22.1 8 Nordeste 17 Nordeste 0 -- -- 57
2020-10-28 14:00:00 21.2 12 Norte 19 Norte 0 -- -- 57
2020-10-28 13:00:00 19.1 4 Sudeste 17 Sudeste 0 -- -- 63
2020-10-28 12:00:00 17.8 5 Sudeste 11 Este 0 -- -- 67
2020-10-28 11:00:00 15.5 6 Este 11 Este 0 -- -- 72
2020-10-28 10:00:00 14.5 6 Este 10 Este 0 -- -- 78
2020-10-28 09:00:00 9.5 2 Sudeste 4 Sudeste 0 -- -- 98
2020-10-28 08:00:00 6.3 0 Calma 3 Noroeste 0 -- -- 96
2020-10-28 07:00:00 6.3 0 Calma 4 Norte 0 -- -- 96
2020-10-28 06:00:00 6.5 0 Calma 6 Norte 0 -- -- 96
2020-10-28 05:00:00 6.5 0 Calma 3 Sudeste 0 -- -- 96
2020-10-28 04:00:00 6.3 0 Calma 3 Noroeste 0 -- -- 95
2020-10-28 03:00:00 6.5 2 Noroeste 5 Norte 0 -- -- 95
2020-10-28 02:00:00 7.1 0 Calma 8 Norte 0 -- -- 94
2020-10-28 01:00:00 7.3 0 Calma 5 Noroeste 0 -- -- 94
2020-10-28 00:00:00 7.6 0 Calma 4 Noroeste 0 -- -- 92
2020-10-27 23:00:00 8.3 0 Calma 5 Este 0 -- -- 91
2020-10-27 22:00:00 9.2 3 Noroeste 5 Norte 0 -- -- 90
2020-10-27 21:00:00 10.2 0 Calma 3 Noroeste 0 -- -- 85
2020-10-27 20:00:00 11.7 0 Calma 5 Noroeste 0 -- -- 82
2020-10-27 19:00:00 14.3 2 Nordeste 5 Sur 0 -- -- 71
2020-10-27 18:00:00 18.2 3 Sudeste 13 Sur 0 -- -- 56
2020-10-27 17:00:00 19.5 5 Sudoeste 12 Oeste 0 -- -- 49
2020-10-27 16:00:00 19.5 4 Sur 14 Oeste 0 -- -- 48
2020-10-27 15:00:00 18.7 4 Sudeste 9 Sudeste 0 -- -- 49
2020-10-27 14:00:00 17.9 6 Sur 15 Sudeste 0 -- -- 54
2020-10-27 13:00:00 16.7 7 Este 16 Sudeste 0 -- -- 60
2020-10-27 12:00:00 15.3 3 Sudeste 10 Sudeste 0 -- -- 66
2020-10-27 11:00:00 13.6 4 Sudeste 8 Sudeste 0 -- -- 75
2020-10-27 10:00:00 10.6 0 Calma 3 Oeste 0 -- -- 87
2020-10-27 09:00:00 6.7 0 Calma 3 Norte 0 -- -- 98
2020-10-27 08:00:00 3.6 0 Calma 3 Sur 0 -- -- 96
2020-10-27 07:00:00 3.8 0 Calma 2 Sur 0 -- -- 96
2020-10-27 06:00:00 4.2 0 Calma 4 Noroeste 0 -- -- 97
2020-10-27 05:00:00 3.9 0 Calma 4 Oeste 0 -- -- 96
2020-10-27 04:00:00 3.8 0 Calma 4 Norte 0 -- -- 95
2020-10-27 03:00:00 4.3 0 Calma 4 Noroeste 0 -- -- 95
2020-10-27 02:00:00 4.8 0 Calma 3 Oeste 0 -- -- 93
2020-10-27 01:00:00 5.4 0 Calma 5 Norte 0 -- -- 93
2020-10-27 00:00:00 5.8 0 Calma 3 Noroeste 0 -- -- 93
2020-10-26 23:00:00 6.5 0 Calma 4 Noroeste 0 -- -- 90
2020-10-26 22:00:00 7.5 0 Calma 5 Norte 0 -- -- 89
2020-10-26 21:00:00 8.6 2 Sudeste 6 Noroeste 0 -- -- 88
2020-10-26 20:00:00 10.4 0 Calma 10 Noroeste 0 -- -- 79
2020-10-26 19:00:00 13 8 Noroeste 14 Noroeste 0 -- -- 66
2020-10-26 18:00:00 16.2 8 Noroeste 23 Noroeste 0 -- -- 55
2020-10-26 17:00:00 17.2 15 Noroeste 28 Norte 0 -- -- 48
2020-10-26 16:00:00 17.6 16 Norte 29 Norte 0 -- -- 45
2020-10-26 15:00:00 18.6 12 Noroeste 30 Noroeste 0 -- -- 47
2020-10-26 14:00:00 17.9 12 Noroeste 27 Noroeste 0 -- -- 47
2020-10-26 13:00:00 16.7 12 Norte 28 Noroeste 0 -- -- 56
2020-10-26 12:00:00 16.1 12 Noroeste 32 Noroeste 0 -- -- 62
2020-10-26 11:00:00 14.9 8 Noroeste 26 Oeste 0 -- -- 68
2020-10-26 10:00:00 13.6 10 Noroeste 21 Oeste 0 -- -- 74
2020-10-26 09:00:00 11.4 8 Noroeste 16 Oeste 0 -- -- 87
2020-10-26 08:00:00 8.9 4 Noroeste 12 Noroeste 0 -- -- 94
2020-10-26 07:00:00 9.6 9 Oeste 13 Sudoeste 0 -- -- 95
2020-10-26 06:00:00 9.9 4 Noroeste 10 Noroeste 0 -- -- 92
2020-10-26 05:00:00 10.5 7 Noroeste 11 Noroeste 0 -- -- 93
2020-10-26 04:00:00 11.5 6 Noroeste 16 Oeste 0 -- -- 90
2020-10-26 03:00:00 12.7 13 Oeste 22 Oeste 0 -- -- 86
2020-10-26 02:00:00 13.3 8 Oeste 23 Oeste 0 -- -- 86
2020-10-26 01:00:00 14.3 9 Oeste 14 Oeste 0 -- -- 92
2020-10-26 00:00:00 14.7 8 Oeste 32 Oeste 0 -- -- 93
2020-10-25 23:00:00 15.7 18 Oeste 41 Oeste 2.4 -- -- 92
2020-10-25 22:00:00 16.3 19 Sudoeste 42 Sudoeste 1 -- -- 94
2020-10-25 21:00:00 16.4 17 Sudoeste 33 Sudoeste 0.6 -- -- 90
2020-10-25 20:00:00 17 23 Sudoeste 46 Sudoeste 0 -- -- 84
2020-10-25 19:00:00 17.2 10 Sudoeste 29 Sudoeste 0 -- -- 81
2020-10-25 18:00:00 17.9 13 Sudoeste 36 Sudoeste 0 -- -- 74
2020-10-25 17:00:00 18.7 18 Sudoeste 29 Oeste 0 -- -- 67
2020-10-25 16:00:00 18.8 15 Sudoeste 34 Sudoeste 0 -- -- 69
2020-10-25 15:00:00 18.1 11 Sudoeste 28 Sudoeste 0 -- -- 73
2020-10-25 14:00:00 18 15 Sudoeste 27 Sudoeste 0 -- -- 73
2020-10-25 13:00:00 16.1 6 Sudoeste 17 Sudoeste 0 -- -- 79
2020-10-25 12:00:00 14.5 4 Sur 9 Sur 0 -- -- 90
2020-10-25 11:00:00 12.8 0 Calma 4 Oeste 0 -- -- 98
2020-10-25 10:00:00 11.9 0 Calma 3 Este 0 -- -- 98
2020-10-25 09:00:00 11.3 2 Nordeste 4 Este 0 -- -- 98
2020-10-25 08:00:00 10.9 0 Calma 3 Este 0 -- -- 98
2020-10-25 07:00:00 10.9 0 Calma 3 Nordeste 0 -- -- 98
2020-10-25 06:00:00 10.9 0 Calma 4 Nordeste 0 -- -- 98
2020-10-25 05:00:00 10.3 0 Calma 4 Sudoeste 0 -- -- 98
2020-10-25 04:00:00 9 3 Sudoeste 4 Sudoeste 0 -- -- 98
2020-10-25 03:00:00 7.9 0 Calma 4 Norte 0 -- -- 96
2020-10-25 02:00:00 8.3 0 Calma 2 Norte 0 -- -- 95
2020-10-25 01:00:00 9.4 0 Calma 2 Norte 0 -- -- 94
2020-10-25 00:00:00 10.2 0 Calma 4 Noroeste 0 -- -- 93
2020-10-24 23:00:00 11 0 Calma 4 Norte 0 -- -- 92
2020-10-24 22:00:00 12 0 Calma 3 Norte 0 -- -- 89
2020-10-24 21:00:00 13.5 2 Noroeste 3 Norte 0 -- -- 88
2020-10-24 20:00:00 15.7 0 Calma 13 Sudoeste 0 -- -- 80
2020-10-24 19:00:00 18.3 8 Sudoeste 19 Sudoeste 0 -- -- 69
2020-10-24 18:00:00 19.7 8 Sudoeste 20 Sudoeste 0 -- -- 66
2020-10-24 17:00:00 20 8 Sudoeste 17 Sudoeste 0 -- -- 68
2020-10-24 16:00:00 19 4 Sudoeste 10 Oeste 0 -- -- 73
2020-10-24 15:00:00 17.3 0 Calma 7 Noroeste 0.2 -- -- 84
2020-10-24 14:00:00 15.6 2 Oeste 5 Noroeste 0 -- -- 91
2020-10-24 13:00:00 14 2 Este 6 Norte 0 -- -- 98
2020-10-24 12:00:00 13.1 2 Nordeste 8 Nordeste 0 -- -- 98
2020-10-24 11:00:00 12.3 5 Nordeste 11 Este 0 -- -- 98
2020-10-24 10:00:00 9.2 0 Calma 2 Nordeste 0 -- -- 99
2020-10-24 09:00:00 6.7 0 Calma 2 Norte 0 -- -- 97
2020-10-24 08:00:00 7.1 0 Calma 2 Noroeste 0 -- -- 97
2020-10-24 07:00:00 7.7 0 Calma 2 Sur 0 -- -- 97
2020-10-24 06:00:00 8.1 0 Calma 3 Oeste 0 -- -- 96
2020-10-24 05:00:00 8.4 0 Calma 3 Norte 0 -- -- 96
2020-10-24 04:00:00 9 0 Calma 3 Noroeste 0 -- -- 95
2020-10-24 03:00:00 9.7 0 Calma 3 Oeste 0 -- -- 96
2020-10-24 02:00:00 10.4 0 Calma 3 Noroeste 0 -- -- 94
2020-10-24 01:00:00 11.5 0 Calma 2 Norte 0 -- -- 95
2020-10-24 00:00:00 11.6 0 Calma 4 Norte 0 -- -- 95
2020-10-23 23:00:00 11.9 0 Calma 4 Noroeste 0.2 -- -- 94
2020-10-23 22:00:00 13 0 Calma 5 Noroeste 0 -- -- 92
2020-10-23 21:00:00 14.2 2 Oeste 3 Oeste 0 -- -- 92
2020-10-23 20:00:00 15.4 2 Este 7 Sudoeste 0 -- -- 92
2020-10-23 19:00:00 15.9 4 Oeste 21 Sudoeste 1 -- -- 87
2020-10-23 18:00:00 20.3 9 Sudoeste 23 Sudoeste 0 -- -- 59
2020-10-23 17:00:00 20.2 9 Sur 21 Sur 0 -- -- 62
2020-10-23 16:00:00 19.8 7 Sudoeste 21 Sudoeste 0 -- -- 66
2020-10-23 15:00:00 18.7 5 Sur 15 Sudoeste 0 -- -- 71
2020-10-23 14:00:00 16.7 0 Calma 10 Sudoeste 0 -- -- 82
2020-10-23 13:00:00 15.1 2 Noroeste 6 Noroeste 0 -- -- 94
2020-10-23 12:00:00 13.7 0 Calma 5 Norte 0 -- -- 99
2020-10-23 11:00:00 12.6 0 Calma 4 Oeste 0 -- -- 99
2020-10-23 10:00:00 10.5 2 Oeste 3 Sudoeste 0 -- -- 99
2020-10-23 09:00:00 8.6 0 Calma 2 Norte 0.2 -- -- 98
2020-10-23 08:00:00 8.9 0 Calma 5 Noroeste 0 -- -- 98
2020-10-23 07:00:00 9.5 0 Calma 2 Noroeste 0 -- -- 98
2020-10-23 06:00:00 10 0 Calma 4 Noroeste 0 -- -- 98
2020-10-23 05:00:00 10.1 0 Calma 4 Norte 0 -- -- 97
2020-10-23 04:00:00 10.3 2 Noroeste 4 Noroeste 0 -- -- 96
2020-10-23 03:00:00 11 0 Calma 6 Norte 0 -- -- 96
2020-10-23 02:00:00 12.1 0 Calma 6 Sudoeste 0.2 -- -- 96
2020-10-23 01:00:00 12.8 3 Nordeste 5 Este 0 -- -- 95
2020-10-23 00:00:00 14.4 4 Oeste 13 Sudoeste 0 -- -- 95
2020-10-22 23:00:00 14.9 4 Oeste 17 Sudoeste 0 -- -- 94
2020-10-22 22:00:00 15.5 8 Sudoeste 15 Sudoeste 0 -- -- 95
2020-10-22 21:00:00 15.2 2 Sudoeste 9 Sur 0.6 -- -- 94
2020-10-22 20:00:00 16.3 3 Este 8 Sudeste 0 -- -- 93
2020-10-22 19:00:00 17.2 4 Sudeste 11 Sudeste 0 -- -- 92
2020-10-22 18:00:00 17.4 5 Sudeste 12 Sudeste 0 -- -- 93
2020-10-22 17:00:00 16.1 4 Nordeste 5 Este 2.2 -- -- 97
2020-10-22 16:00:00 15.5 4 Noroeste 18 Noroeste 20.2 -- -- 96
2020-10-22 15:00:00 17.4 2 Este 14 Noroeste 6.6 -- -- 91
2020-10-22 14:00:00 16.1 8 Este 14 Sudeste 5 -- -- 95
2020-10-22 13:00:00 16.2 8 Sudeste 15 Sudeste 0 -- -- 93
2020-10-22 12:00:00 16 10 Sudeste 17 Sudeste 2 -- -- 94
2020-10-22 11:00:00 16.1 6 Sudeste 14 Sudeste 0.2 -- -- 94
2020-10-22 10:00:00 15.9 4 Sudeste 8 Sudeste 0 -- -- 95
2020-10-22 09:00:00 15.6 6 Sudeste 15 Sudeste 0.2 -- -- 95
2020-10-22 08:00:00 15.8 6 Sudeste 13 Sur 0.8 -- -- 94
2020-10-22 07:00:00 16.1 5 Sudeste 10 Sudeste 0 -- -- 94
2020-10-22 06:00:00 16.1 7 Sudeste 12 Sudeste 0 -- -- 94
2020-10-22 05:00:00 16.2 0 Calma 5 Sudeste 0.4 -- -- 94
2020-10-22 04:00:00 16.6 5 Este 6 Este 0.2 -- -- 93
2020-10-22 03:00:00 17.4 7 Sur 21 Sudoeste 0.6 -- -- 89
2020-10-22 02:00:00 17.7 7 Sudoeste 15 Sudoeste 0 -- -- 86
2020-10-22 01:00:00 17.5 4 Sur 10 Sudoeste 0 -- -- 89
2020-10-22 00:00:00 17.4 0 Calma 8 Sudeste 0 -- -- 89
2020-10-21 23:00:00 18 4 Sur 15 Sudoeste 0 -- -- 87
2020-10-21 22:00:00 18.1 5 Sur 12 Sur 0 -- -- 87
2020-10-21 21:00:00 18.1 4 Sur 12 Sudoeste 0 -- -- 86
2020-10-21 20:00:00 18.4 4 Sur 15 Sur 0 -- -- 83
2020-10-21 19:00:00 18.9 9 Sur 29 Sur 0 -- -- 78
2020-10-21 18:00:00 20.7 9 Sudoeste 29 Sur 0 -- -- 69
2020-10-21 17:00:00 20.9 13 Sur 28 Sudoeste 0 -- -- 69
2020-10-21 16:00:00 20.7 9 Sudoeste 28 Sudoeste 0 -- -- 72
2020-10-21 15:00:00 20.2 14 Sudoeste 29 Sudoeste 0 -- -- 76
2020-10-21 14:00:00 19.6 13 Sudoeste 24 Sudoeste 0 -- -- 79
2020-10-21 13:00:00 18.1 8 Sudoeste 24 Sudoeste 0 -- -- 90
2020-10-21 12:00:00 17.3 6 Sudoeste 20 Oeste 1 -- -- 90
2020-10-21 11:00:00 16.9 11 Sudoeste 21 Sudoeste 0.2 -- -- 92
2020-10-21 10:00:00 16.8 9 Sudoeste 28 Sudoeste 0 -- -- 93
2020-10-21 09:00:00 16.7 11 Sudoeste 24 Sudoeste 0 -- -- 95
2020-10-21 08:00:00 16.4 8 Sur 18 Sur 1.8 -- -- 94
2020-10-21 07:00:00 16.5 9 Sur 23 Sur 0 -- -- 93
2020-10-21 06:00:00 16.6 8 Sur 20 Sur 0 -- -- 93
2020-10-21 05:00:00 16.8 8 Sur 20 Sur 0 -- -- 93
2020-10-21 04:00:00 16.8 9 Sur 33 Sur 3.6 -- -- 94
2020-10-21 03:00:00 16.9 8 Sudoeste 22 Sudoeste 8.2 -- -- 95
2020-10-21 02:00:00 17 10 Sur 32 Sudoeste 0 -- -- 94
2020-10-21 01:00:00 17 13 Sudoeste 40 Sudoeste 0 -- -- 95
2020-10-21 00:00:00 16.5 10 Sudoeste 41 Sudoeste 1.4 -- -- 95
2020-10-20 23:00:00 17 19 Sudoeste 67 Sur 9.8 -- -- 93
2020-10-20 22:00:00 18.6 26 Sur 52 Sur 2.6 -- -- 88
2020-10-20 21:00:00 18.8 17 Sur 47 Sudoeste 2.8 -- -- 85
2020-10-20 20:00:00 21.2 21 Sudoeste 49 Sudoeste 0.6 -- -- 69
2020-10-20 19:00:00 23.5 28 Sur 65 Sur 0 -- -- 56
2020-10-20 18:00:00 24.7 12 Sudoeste 32 Sudoeste 0 -- -- 42
2020-10-20 17:00:00 23.7 9 Sudoeste 22 Sur 0 -- -- 41
2020-10-20 16:00:00 24.8 13 Sur 31 Sur 0 -- -- 38
2020-10-20 15:00:00 25.4 13 Sur 24 Sur 0 -- -- 39
2020-10-20 14:00:00 24.5 6 Sudoeste 25 Sudeste 0 -- -- 38
2020-10-20 13:00:00 23.2 10 Sudeste 24 Sur 0 -- -- 40
2020-10-20 12:00:00 22.3 13 Sudeste 25 Sudeste 0 -- -- 44
2020-10-20 11:00:00 20.1 8 Sudeste 15 Este 0 -- -- 51
2020-10-20 10:00:00 18.1 3 Este 6 Sudeste 0 -- -- 58
2020-10-20 09:00:00 17.5 4 Este 7 Este 0 -- -- 59
2020-10-20 08:00:00 17.2 3 Este 11 Este 0 -- -- 64
2020-10-20 07:00:00 17.4 4 Este 9 Este 0 -- -- 58
2020-10-20 06:00:00 18.1 5 Sudeste 16 Este 0 -- -- 60
2020-10-20 05:00:00 17 3 Este 5 Este 0 -- -- 63
2020-10-20 04:00:00 16.4 0 Calma 5 Este 0 -- -- 64
2020-10-20 03:00:00 16.2 2 Sudeste 6 Oeste 0 -- -- 62
2020-10-20 02:00:00 15.6 0 Calma 6 Noroeste 0 -- -- 64
2020-10-20 01:00:00 15.1 0 Calma 8 Sudoeste 0 -- -- 64
2020-10-20 00:00:00 15.7 0 Calma 6 Sudoeste 0 -- -- 59
2020-10-19 23:00:00 16.4 3 Oeste 5 Oeste 0 -- -- 54
2020-10-19 22:00:00 20.1 0 Calma 9 Sudoeste 0 -- -- 47
2020-10-19 21:00:00 23 3 Sudoeste 22 Sudoeste 0 -- -- 41
2020-10-19 20:00:00 24.5 12 Oeste 25 Oeste 0 -- -- 35
2020-10-19 19:00:00 26.7 9 Sur 26 Sur 0 -- -- 29
2020-10-19 18:00:00 27.8 10 Sur 26 Sudeste 0 -- -- 28
2020-10-19 17:00:00 29.5 11 Sur 30 Este 0 -- -- 24
2020-10-19 16:00:00 28.5 20 Sudeste 35 Este 0 -- -- 23
2020-10-19 15:00:00 28.2 20 Sudeste 35 Sudeste 0 -- -- 23
2020-10-19 14:00:00 26.2 14 Sudeste 26 Sudeste 0 -- -- 28
2020-10-19 13:00:00 24 12 Este 25 Este 0 -- -- 29
2020-10-19 12:00:00 21.6 12 Este 23 Este 0 -- -- 32
2020-10-19 11:00:00 19.4 13 Este 23 Este 0 -- -- 34
2020-10-19 10:00:00 11.8 2 Sudeste 8 Este 0 -- -- 59
2020-10-19 09:00:00 4.9 0 Calma 4 Este 0 -- -- 76
2020-10-19 08:00:00 4.9 0 Calma 3 Sudeste 0 -- -- 73
2020-10-19 07:00:00 5.5 0 Calma 6 Sudeste 0 -- -- 69
2020-10-19 06:00:00 6.4 0 Calma 8 Este 0 -- -- 68
2020-10-19 05:00:00 6 0 Calma 8 Oeste 0 -- -- 64
2020-10-19 04:00:00 5.9 0 Calma 4 Este 0 -- -- 62
2020-10-19 03:00:00 5.7 0 Calma 3 Norte 0 -- -- 58
2020-10-19 02:00:00 6.5 0 Calma 2 Norte 0 -- -- 57
2020-10-19 01:00:00 7.6 0 Calma 3 Norte 0 -- -- 53
2020-10-19 00:00:00 9.2 0 Calma 5 Norte 0 -- -- 50
2020-10-18 23:00:00 11.1 2 Nordeste 8 Nordeste 0 -- -- 49
2020-10-18 22:00:00 13 3 Este 6 Este 0 -- -- 45
2020-10-18 21:00:00 16.2 2 Norte 14 Sur 0 -- -- 41
2020-10-18 20:00:00 20.6 0 Calma 13 Este 0 -- -- 36
2020-10-18 19:00:00 24.8 8 Este 14 Nordeste 0 -- -- 30
2020-10-18 18:00:00 25.7 7 Nordeste 18 Este 0 -- -- 29
2020-10-18 17:00:00 25.9 9 Este 18 Sudeste 0 -- -- 30
2020-10-18 16:00:00 25.7 6 Este 20 Sudeste 0 -- -- 30
2020-10-18 15:00:00 25.3 6 Sudeste 19 Sudeste 0 -- -- 31
2020-10-18 14:00:00 23.4 10 Este 20 Este 0 -- -- 34
2020-10-18 13:00:00 21.2 8 Este 27 Este 0 -- -- 35
2020-10-18 12:00:00 18.1 13 Este 30 Este 0 -- -- 42
2020-10-18 11:00:00 15.4 16 Este 28 Este 0 -- -- 50
2020-10-18 10:00:00 7 0 Calma 2 Noroeste 0 -- -- 79
2020-10-18 09:00:00 1.8 0 Calma 2 Norte 0 -- -- 85
2020-10-18 08:00:00 1.7 2 Norte 3 Norte 0 -- -- 79
2020-10-18 07:00:00 2.1 0 Calma 2 Noroeste 0 -- -- 80
2020-10-18 06:00:00 2.3 0 Calma 4 Oeste 0 -- -- 76
2020-10-18 05:00:00 3 2 Norte 3 Norte 0 -- -- 74
2020-10-18 04:00:00 3.7 0 Calma 5 Norte 0 -- -- 78
2020-10-18 03:00:00 4.4 3 Norte 4 Noroeste 0 -- -- 72
2020-10-18 02:00:00 5.3 0 Calma 2 Norte 0 -- -- 70
2020-10-18 01:00:00 6.3 0 Calma 5 Oeste 0 -- -- 63
2020-10-18 00:00:00 7.2 0 Calma 4 Oeste 0 -- -- 62
2020-10-17 23:00:00 8.6 0 Calma 3 Oeste 0 -- -- 59
2020-10-17 22:00:00 10.7 0 Calma 5 Noroeste 0 -- -- 52
2020-10-17 21:00:00 13.5 4 Noroeste 5 Noroeste 0 -- -- 44
2020-10-17 20:00:00 18.1 4 Oeste 8 Sur 0 -- -- 42
2020-10-17 19:00:00 22.5 4 Sudoeste 11 Sur 0 -- -- 36
2020-10-17 18:00:00 23.5 4 Sur 14 Sur 0 -- -- 35
2020-10-17 17:00:00 23.6 9 Sur 20 Sudeste 0 -- -- 35
2020-10-17 16:00:00 23.4 6 Sur 15 Sudeste 0 -- -- 35
2020-10-17 15:00:00 22.5 6 Sur 17 Sur 0 -- -- 37
2020-10-17 14:00:00 21.3 8 Sur 17 Sur 0 -- -- 38
2020-10-17 13:00:00 19.5 7 Sudeste 15 Sudeste 0 -- -- 44
2020-10-17 12:00:00 17.6 4 Sudeste 10 Este 0 -- -- 51
2020-10-17 11:00:00 13.6 0 Calma 3 Este 0 -- -- 58
2020-10-17 10:00:00 6.9 0 Calma 2 Norte 0 -- -- 72
2020-10-17 09:00:00 1 2 Norte 3 Norte 0 -- -- 75
2020-10-17 08:00:00 0.9 0 Calma 2 Norte 0 -- -- 71
2020-10-17 07:00:00 1.3 0 Calma 3 Noroeste 0 -- -- 73
2020-10-17 06:00:00 1.8 0 Calma 3 Noroeste 0 -- -- 71
2020-10-17 05:00:00 2.4 0 Calma 4 Noroeste 0 -- -- 67
2020-10-17 04:00:00 3.2 0 Calma 3 Noroeste 0 -- -- 65
2020-10-17 03:00:00 4.2 3 Norte 5 Noroeste 0 -- -- 65
2020-10-17 02:00:00 5.3 0 Calma 5 Sudoeste 0 -- -- 61
2020-10-17 01:00:00 5.9 3 Norte 5 Norte 0 -- -- 63
2020-10-17 00:00:00 6.7 0 Calma 4 Noroeste 0 -- -- 54
2020-10-16 23:00:00 8.2 0 Calma 4 Noroeste 0 -- -- 48
2020-10-16 22:00:00 10.4 0 Calma 4 Noroeste 0 -- -- 46
2020-10-16 21:00:00 13.4 3 Noroeste 6 Noroeste 0 -- -- 40
2020-10-16 20:00:00 18.3 3 Sudoeste 13 Sudoeste 0 -- -- 34
2020-10-16 19:00:00 21.9 8 Sudoeste 18 Sudoeste 0 -- -- 29
2020-10-16 18:00:00 23.5 9 Sur 20 Sur 0 -- -- 27
2020-10-16 17:00:00 23.7 9 Oeste 19 Oeste 0 -- -- 26
2020-10-16 16:00:00 23.5 4 Sudoeste 20 Este 0 -- -- 27
2020-10-16 15:00:00 22.5 3 Norte 15 Sudeste 0 -- -- 29
2020-10-16 14:00:00 21.2 6 Sudeste 22 Este 0 -- -- 32
2020-10-16 13:00:00 19.5 13 Este 28 Este 0 -- -- 34
2020-10-16 12:00:00 17.8 14 Este 27 Este 0 -- -- 38
2020-10-16 11:00:00 14.9 3 Nordeste 10 Este 0 -- -- 46
2020-10-16 10:00:00 7.6 0 Calma 2 Noroeste 0 -- -- 68
2020-10-16 09:00:00 1.1 0 Calma 2 Norte 0 -- -- 74
2020-10-16 08:00:00 1.2 0 Calma 3 Norte 0 -- -- 74
2020-10-16 07:00:00 1.4 0 Calma 2 Noroeste 0 -- -- 73
2020-10-16 06:00:00 2 0 Calma 3 Norte 0 -- -- 68
2020-10-16 05:00:00 2.8 0 Calma 3 Norte 0 -- -- 65
2020-10-16 04:00:00 3.4 2 Noroeste 5 Este 0 -- -- 66
2020-10-16 03:00:00 4 0 Calma 4 Norte 0 -- -- 63
2020-10-16 02:00:00 5 0 Calma 2 Norte 0 -- -- 56
2020-10-16 01:00:00 6.7 3 Noroeste 4 Noroeste 0 -- -- 56
2020-10-16 00:00:00 9.2 2 Norte 7 Norte 0 -- -- 50
2020-10-15 23:00:00 11.9 7 Noroeste 13 Oeste 0 -- -- 47
2020-10-15 22:00:00 11.4 0 Calma 7 Noroeste 0 -- -- 50
2020-10-15 21:00:00 13.4 0 Calma 7 Norte 0 -- -- 42
2020-10-15 20:00:00 18.2 0 Calma 11 Sudoeste 0 -- -- 34
2020-10-15 19:00:00 21.7 6 Sudoeste 22 Sudoeste 0 -- -- 30
2020-10-15 18:00:00 22.9 11 Sudoeste 29 Oeste 0 -- -- 29
2020-10-15 17:00:00 23.6 9 Oeste 27 Sur 0 -- -- 29
2020-10-15 16:00:00 23.4 12 Sur 28 Sur 0 -- -- 31
2020-10-15 15:00:00 22.5 7 Sudoeste 15 Sudoeste 0 -- -- 32
2020-10-15 14:00:00 21.6 5 Sur 15 Sudeste 0 -- -- 36
2020-10-15 13:00:00 20.7 9 Sur 18 Sur 0 -- -- 40
2020-10-15 12:00:00 19 6 Nordeste -- -- -- -- -- 41
2020-10-15 11:00:00 -- -- -- -- -- -- -- -- --
2020-10-15 10:00:00 12.7 2 Noroeste 5 Noroeste 0 -- -- 58
2020-10-15 09:00:00 8.1 2 Sudoeste 13 Norte 0 -- -- 67
2020-10-15 08:00:00 8.5 8 Norte 12 Norte 0 -- -- 66
2020-10-15 07:00:00 7.1 0 Calma 5 Oeste 0 -- -- 64
2020-10-15 06:00:00 8.6 3 Este 13 Norte 0 -- -- 60
2020-10-15 05:00:00 10 4 Norte 13 Norte 0 -- -- 57
2020-10-15 04:00:00 6 3 Noroeste 7 Noroeste 0 -- -- 65
2020-10-15 03:00:00 5.2 3 Noroeste 6 Norte 0 -- -- 67
2020-10-15 02:00:00 5.5 0 Calma 7 Norte 0 -- -- 59
2020-10-15 01:00:00 6.2 0 Calma 5 Norte 0 -- -- 57
2020-10-15 00:00:00 7.4 0 Calma 4 Norte 0 -- -- 52
2020-10-14 23:00:00 9.1 2 Norte 5 Norte 0 -- -- 48
2020-10-14 22:00:00 12.1 2 Norte 10 Oeste 0 -- -- 42
2020-10-14 21:00:00 14.4 7 Noroeste 9 Oeste 0 -- -- 39
2020-10-14 20:00:00 19.6 5 Noroeste 20 Noroeste 0 -- -- 32
2020-10-14 19:00:00 22.4 12 Noroeste 28 Noroeste 0 -- -- 29
2020-10-14 18:00:00 23.9 15 Noroeste 31 Noroeste 0 -- -- 27
2020-10-14 17:00:00 24 14 Noroeste 29 Norte 0 -- -- 28
2020-10-14 16:00:00 23.8 17 Noroeste 40 Oeste 0 -- -- 27
2020-10-14 15:00:00 23.4 14 Noroeste 31 Noroeste 0 -- -- 30
2020-10-14 14:00:00 22.9 15 Noroeste 27 Noroeste 0 -- -- 32
2020-10-14 13:00:00 20.6 6 Sudoeste 16 Sudoeste 0 -- -- 43
2020-10-14 12:00:00 18.5 7 Sudoeste 23 Oeste 0 -- -- 48
2020-10-14 11:00:00 17.2 12 Noroeste 21 Norte 0 -- -- 50
2020-10-14 10:00:00 13.6 5 Norte 9 Norte 0 -- -- 66
2020-10-14 09:00:00 5.7 6 Nordeste 7 Nordeste 0 -- -- 82
2020-10-14 08:00:00 5.6 4 Noroeste 9 Oeste 0 -- -- 82
2020-10-14 07:00:00 5.6 0 Calma 9 Este 0 -- -- 76
2020-10-14 06:00:00 5.3 0 Calma 4 Norte 0 -- -- 71
2020-10-14 05:00:00 6.3 0 Calma 4 Oeste 0 -- -- 68
2020-10-14 04:00:00 7.8 0 Calma 7 Norte 0 -- -- 64
2020-10-14 03:00:00 8.8 0 Calma 7 Este 0 -- -- 60
2020-10-14 02:00:00 9.6 2 Nordeste 9 Noroeste 0 -- -- 57
2020-10-14 01:00:00 9.9 0 Calma 4 Norte 0 -- -- 56
2020-10-14 00:00:00 11.1 3 Norte 5 Norte 0 -- -- 50
2020-10-13 23:00:00 12.8 0 Calma 3 Norte 0 -- -- 48
2020-10-13 22:00:00 16 2 Norte 6 Noroeste 0 -- -- 41
2020-10-13 21:00:00 19.8 5 Oeste 13 Oeste 0 -- -- 37
2020-10-13 20:00:00 23.2 6 Sudoeste 18 Sudoeste 0 -- -- 33
2020-10-13 19:00:00 26.3 8 Sudoeste 21 Sudoeste 0 -- -- 28
2020-10-13 18:00:00 27.6 9 Sudoeste 21 Oeste 0 -- -- 27
2020-10-13 17:00:00 27.9 9 Sudoeste 18 Sudoeste 0 -- -- 27
2020-10-13 16:00:00 27.3 7 Sudoeste 16 Sur 0 -- -- 27
2020-10-13 15:00:00 26.3 5 Sudeste 13 Sur 0 -- -- 28
2020-10-13 14:00:00 25 4 Este 13 Sudeste 0 -- -- 27
2020-10-13 13:00:00 23.6 8 Sudeste 16 Sudeste 0 -- -- 30
2020-10-13 12:00:00 21.9 5 Este 12 Este 0 -- -- 31
2020-10-13 11:00:00 17.3 3 Sudeste 5 Sur 0 -- -- 40
2020-10-13 10:00:00 10.6 0 Calma 2 Norte 0 -- -- 57
2020-10-13 09:00:00 2.9 0 Calma 5 Oeste 0 -- -- 71
2020-10-13 08:00:00 2.7 3 Oeste 5 Oeste 0 -- -- 70
2020-10-13 07:00:00 3.5 0 Calma 4 Norte 0 -- -- 70
2020-10-13 06:00:00 3.7 3 Oeste 5 Oeste 0 -- -- 67
2020-10-13 05:00:00 4.6 0 Calma 4 Sudoeste 0 -- -- 56
2020-10-13 04:00:00 5.5 3 Noroeste 5 Noroeste 0 -- -- 60
2020-10-13 03:00:00 6.3 0 Calma 4 Nordeste 0 -- -- 57
2020-10-13 02:00:00 7.3 0 Calma 7 Norte 0 -- -- 50
2020-10-13 01:00:00 -- -- -- -- -- -- -- -- --
2020-10-13 00:00:00 9.5 2 Nordeste 8 Noroeste 0 -- -- 47
2020-10-12 23:00:00 9.7 0 Calma 5 Sudeste 0 -- -- 46
2020-10-12 22:00:00 11.5 0 Calma 3 Norte 0 -- -- 42
2020-10-12 21:00:00 15 0 Calma 9 Norte 0 -- -- 35
2020-10-12 20:00:00 21 6 Norte 12 Norte 0 -- -- 26
2020-10-12 19:00:00 24.1 4 Nordeste 16 Este 0 -- -- 26
2020-10-12 18:00:00 25 10 Sudeste 23 Sudeste 0 -- -- 26
2020-10-12 17:00:00 25.3 9 Sudeste 19 Este 0 -- -- 25
2020-10-12 16:00:00 24.7 8 Este 21 Este 0 -- -- 25
2020-10-12 15:00:00 23.7 6 Nordeste 24 Nordeste 0 -- -- 26
2020-10-12 14:00:00 22 10 Este 26 Este 0 -- -- 29
2020-10-12 13:00:00 20.5 12 Este 26 Este 0 -- -- 34
2020-10-12 12:00:00 18.6 17 Este 30 Este 0 -- -- 38
2020-10-12 11:00:00 16.8 14 Este 27 Este 0 -- -- 40
2020-10-12 10:00:00 14.7 7 Este 19 Este 0 -- -- 45
2020-10-12 09:00:00 10.8 10 Nordeste 13 Nordeste 0 -- -- 52
2020-10-12 08:00:00 9.7 10 Nordeste 12 Nordeste 0 -- -- 54
2020-10-12 07:00:00 10.5 6 Este 15 Nordeste 0 -- -- 53
2020-10-12 06:00:00 8.2 0 Calma 8 Sudoeste 0 -- -- 57
2020-10-12 05:00:00 7.4 2 Oeste 6 Norte 0 -- -- 54
2020-10-12 04:00:00 -- -- -- -- -- -- -- -- --
2020-10-12 03:00:00 8.1 0 Calma 7 Oeste 0 -- -- 53
2020-10-12 02:00:00 8.5 3 Oeste 5 Norte 0 -- -- 52
2020-10-12 01:00:00 10.9 4 Norte 6 Norte 0 -- -- 46
2020-10-12 00:00:00 14.7 6 Nordeste 10 Nordeste 0 -- -- 35
2020-10-11 23:00:00 15.7 8 Nordeste 12 Este 0 -- -- 36
2020-10-11 22:00:00 16.1 0 Calma 5 Sudeste 0 -- -- 47
2020-10-11 21:00:00 -- -- -- -- -- -- -- -- --
2020-10-11 20:00:00 -- -- -- -- -- -- -- -- --
2020-10-11 19:00:00 27.7 10 Norte 20 Noroeste 0 -- -- 29
2020-10-11 18:00:00 29 5 Sudoeste 19 Sudeste 0 -- -- 33
2020-10-11 17:00:00 29 11 Sur 24 Sudeste 0 -- -- 34
2020-10-11 16:00:00 28.3 9 Este 22 Sur 0 -- -- 35
2020-10-11 15:00:00 27.3 14 Sudeste 25 Sudeste 0 -- -- 34
2020-10-11 14:00:00 25.7 15 Este 29 Este 0 -- -- 38
2020-10-11 13:00:00 23.9 17 Este 28 Este 0 -- -- 47
2020-10-11 12:00:00 22.5 18 Este 29 Este 0 -- -- 53
2020-10-11 11:00:00 20.5 12 Este 19 Este 0 -- -- 61
2020-10-11 10:00:00 13.5 0 Calma 3 Noroeste 0 -- -- 76
2020-10-11 09:00:00 7.7 0 Calma 3 Norte 0 -- -- 83
2020-10-11 08:00:00 7.8 0 Calma 3 Noroeste 0 -- -- 76
2020-10-11 07:00:00 8.4 0 Calma 4 Norte 0 -- -- 79
2020-10-11 06:00:00 9 0 Calma 4 Oeste 0 -- -- 74
2020-10-11 05:00:00 9.6 0 Calma 4 Norte 0 -- -- 69
2020-10-11 04:00:00 10.4 0 Calma 4 Norte 0 -- -- 71
2020-10-11 03:00:00 11.5 0 Calma 4 Norte 0 -- -- 68
2020-10-11 02:00:00 12.5 3 Norte 8 Noroeste 0 -- -- 66
2020-10-11 01:00:00 13.9 0 Calma 6 Noroeste 0 -- -- 62
2020-10-11 00:00:00 15 0 Calma 5 Norte 0 -- -- 58
2020-10-10 23:00:00 17.1 0 Calma 5 Norte 0 -- -- 52
2020-10-10 22:00:00 19.6 2 Nordeste 7 Noroeste 0 -- -- 51
2020-10-10 21:00:00 23.7 0 Calma 14 Oeste 0 -- -- 41
2020-10-10 20:00:00 26.5 9 Oeste 18 Sudoeste 0 -- -- 38
2020-10-10 19:00:00 29.3 8 Sudoeste 18 Sudoeste 0 -- -- 32
2020-10-10 18:00:00 31.5 9 Sur 17 Sur 0 -- -- 27
2020-10-10 17:00:00 31.5 6 Sudoeste 16 Sudoeste 0 -- -- 27
2020-10-10 16:00:00 31.2 8 Sur 17 Sudoeste 0 -- -- 30
2020-10-10 15:00:00 30.3 6 Sur 16 Sur 0 -- -- 32
2020-10-10 14:00:00 28.5 5 Sudeste 13 Nordeste 0 -- -- 36
2020-10-10 13:00:00 26.8 4 Sudeste 14 Sudeste 0 -- -- 39
2020-10-10 12:00:00 24.7 7 Este 13 Sudeste 0 -- -- 45
2020-10-10 11:00:00 20.7 3 Sudeste 5 Este 0 -- -- 51
2020-10-10 10:00:00 14.9 0 Calma 3 Norte 0 -- -- 68
2020-10-10 09:00:00 8.9 0 Calma 3 Sudoeste 0 -- -- 77
2020-10-10 08:00:00 8.9 3 Norte 6 Noroeste 0 -- -- 76
2020-10-10 07:00:00 9.1 0 Calma 5 Noroeste 0 -- -- 75
2020-10-10 06:00:00 9.5 0 Calma 4 Noroeste 0 -- -- 68
2020-10-10 05:00:00 10.2 0 Calma 5 Noroeste 0 -- -- 67
2020-10-10 04:00:00 10.8 2 Sur 4 Norte 0 -- -- 70
2020-10-10 03:00:00 11.4 0 Calma 4 Norte 0 -- -- 61
2020-10-10 02:00:00 12.6 2 Oeste 5 Noroeste 0 -- -- 60
2020-10-10 01:00:00 13.5 0 Calma 4 Norte 0 -- -- 60
2020-10-10 00:00:00 14.4 3 Norte 5 Norte 0 -- -- 57
2020-10-09 23:00:00 15.8 4 Norte 6 Noroeste 0 -- -- 51
2020-10-09 22:00:00 17.5 3 Noroeste 4 Noroeste 0 -- -- 49
2020-10-09 21:00:00 20.7 3 Norte 6 Noroeste 0 -- -- 43
2020-10-09 20:00:00 26 2 Noroeste 6 Sur 0 -- -- 35
2020-10-09 19:00:00 30.1 5 Sur 9 Sur 0 -- -- 29
2020-10-09 18:00:00 30.3 5 Sudeste 12 Sur 0 -- -- 29
2020-10-09 17:00:00 30.1 5 Sudeste 13 Sur 0 -- -- 29
2020-10-09 16:00:00 30.2 6 Sur 14 Sur 0 -- -- 32
2020-10-09 15:00:00 29.5 5 Sudeste 13 Sudeste 0 -- -- 33
2020-10-09 14:00:00 28.3 6 Sur 19 Este 0 -- -- 34
2020-10-09 13:00:00 27.2 7 Sudeste 22 Sudeste 0 -- -- 38
2020-10-09 12:00:00 25.3 8 Sudeste 14 Este 0 -- -- 43
2020-10-09 11:00:00 21.7 0 Calma 5 Nordeste 0 -- -- 51
2020-10-09 10:00:00 15.5 2 Sur 4 Sur 0 -- -- 67
2020-10-09 09:00:00 9 0 Calma 3 Norte 0 -- -- 75
2020-10-09 08:00:00 8.8 0 Calma 9 Noroeste 0 -- -- 74
2020-10-09 07:00:00 8.8 0 Calma 9 Noroeste 0 -- -- 76
2020-10-09 06:00:00 9.1 0 Calma -- -- 0 -- -- 70
2020-10-09 05:00:00 9.6 0 Calma -- -- 0 -- -- 68
2020-10-09 04:00:00 10.5 0 Calma -- -- 0 -- -- 66
2020-10-09 03:00:00 11.4 0 Calma -- -- 0 -- -- 62
2020-10-09 02:00:00 12.3 0 Calma -- -- 0 -- -- 63
2020-10-09 01:00:00 13.4 0 Calma 0 Calma 0 -- -- 58
2020-10-09 00:00:00 14.6 0 Calma 4 Norte 0 -- -- 54
2020-10-08 23:00:00 16.8 0 Calma 8 Este 0 -- -- 49
2020-10-08 22:00:00 19.5 4 Nordeste 10 Nordeste 0 -- -- 45
2020-10-08 21:00:00 21.4 4 Nordeste 9 Nordeste 0 -- -- 42
2020-10-08 20:00:00 25.9 2 Noroeste 6 Este 0 -- -- 33
2020-10-08 19:00:00 31 3 Sudeste 14 Sudeste 0 -- -- 27
2020-10-08 18:00:00 31.5 8 Sudeste 18 Sur 0 -- -- 26
2020-10-08 17:00:00 32.2 11 Sudeste 24 Sudeste 0 -- -- 25
2020-10-08 16:00:00 31.2 7 Nordeste 26 Este 0 -- -- 30
2020-10-08 15:00:00 30 9 Sudeste 26 Sudeste 0 -- -- 32
2020-10-08 14:00:00 28.9 11 Sudeste 23 Sudeste 0 -- -- 33
2020-10-08 13:00:00 27.5 13 Este 21 Este 0 -- -- 34
2020-10-08 12:00:00 25 11 Este 20 Este 0 -- -- 39
2020-10-08 11:00:00 23.4 7 Este 13 Este 0 -- -- 41
2020-10-08 10:00:00 15.9 0 Calma 4 Oeste 0 -- -- 62
2020-10-08 09:00:00 9.3 3 Norte 8 Sur 0 -- -- 74
2020-10-08 08:00:00 8.2 2 Noroeste 5 Noroeste 0 -- -- 76
2020-10-08 07:00:00 8.2 0 Calma 3 Norte 0 -- -- 73
2020-10-08 06:00:00 8.4 0 Calma 3 Norte 0 -- -- 71
2020-10-08 05:00:00 8.8 0 Calma 4 Noroeste 0 -- -- 68
2020-10-08 04:00:00 9.3 0 Calma 5 Noroeste 0 -- -- 64
2020-10-08 03:00:00 10.1 0 Calma -- -- 0 -- -- 62
2020-10-08 02:00:00 11 0 Calma 3 Norte 0 -- -- 57
2020-10-08 01:00:00 11.9 0 Calma 3 Oeste 0 -- -- 53
2020-10-08 00:00:00 13.3 0 Calma 4 Noroeste 0 -- -- 54
2020-10-07 23:00:00 14.8 2 Norte 3 Norte 0 -- -- 48
2020-10-07 22:00:00 17.2 2 Noroeste 4 Norte 0 -- -- 43
2020-10-07 21:00:00 20.8 3 Noroeste 5 Noroeste 0 -- -- 37
2020-10-07 20:00:00 26.5 0 Calma 12 Sudeste 0 -- -- 32
2020-10-07 19:00:00 30.8 7 Sudeste 17 Sudeste 0 -- -- 24
2020-10-07 18:00:00 31.6 9 Sudeste 18 Sudeste 0 -- -- 24
2020-10-07 17:00:00 31.8 9 Sudeste 21 Sudeste 0 -- -- 25
2020-10-07 16:00:00 31.5 8 Este 19 Este 0 -- -- 29
2020-10-07 15:00:00 30.3 9 Sudeste 23 Este 0 -- -- 34
2020-10-07 14:00:00 28.6 13 Este 26 Este 0 -- -- 39
2020-10-07 13:00:00 27.2 9 Este 22 Este 0 -- -- 45
2020-10-07 12:00:00 25.2 9 Sudeste 16 Sudeste 0 -- -- 50
2020-10-07 11:00:00 22.5 6 Sudeste 11 Sudeste 0 -- -- 58
2020-10-07 10:00:00 17.2 0 Calma 2 Sudeste 0 -- -- 78
2020-10-07 09:00:00 10.1 0 Calma 4 Sudeste 0 -- -- 90
2020-10-07 08:00:00 9.9 0 Calma 3 Este 0 -- -- 87
2020-10-07 07:00:00 11.2 0 Calma 7 Este 0 -- -- 85
2020-10-07 06:00:00 10.8 3 Este 5 Noroeste 0 -- -- 86
2020-10-07 05:00:00 11.1 0 Calma 8 Nordeste 0 -- -- 82
2020-10-07 04:00:00 11.7 2 Norte 5 Noroeste 0 -- -- 82
2020-10-07 03:00:00 12 0 Calma 5 Oeste 0 -- -- 76
2020-10-07 02:00:00 12.3 0 Calma 5 Oeste 0 -- -- 71
2020-10-07 01:00:00 13.2 0 Calma 4 Norte 0 -- -- 71
2020-10-07 00:00:00 14.4 0 Calma 5 Noroeste 0 -- -- 71
2020-10-06 23:00:00 15.8 4 Norte 5 Norte 0 -- -- 65
2020-10-06 22:00:00 17.8 3 Norte 4 Noroeste 0 -- -- 61
2020-10-06 21:00:00 20.8 0 Calma 6 Noroeste 0 -- -- 56
2020-10-06 20:00:00 25.2 0 Calma 9 Sudeste 0 -- -- 46
2020-10-06 19:00:00 27.8 6 Sur 14 Sudeste 0 -- -- 42
2020-10-06 18:00:00 28.3 9 Sur 18 Sudeste 0 -- -- 40
2020-10-06 17:00:00 28 8 Sur 20 Sur 0 -- -- 40
2020-10-06 16:00:00 28.1 7 Sur 21 Sudeste 0 -- -- 40
2020-10-06 15:00:00 26.4 8 Sudeste 18 Sur 0 -- -- 44
2020-10-06 14:00:00 25.1 10 Sudeste 21 Sudeste 0 -- -- 46
2020-10-06 13:00:00 23.9 11 Sudeste 20 Sudeste 0 -- -- 49
2020-10-06 12:00:00 22.1 10 Sudeste 17 Sudeste 0 -- -- 53
2020-10-06 11:00:00 20.1 7 Nordeste 12 Nordeste 0 -- -- 61
2020-10-06 10:00:00 15.9 5 Este 9 Este 0 -- -- 73
2020-10-06 09:00:00 9.3 0 Calma 5 Sur 0 -- -- 88
2020-10-06 08:00:00 8.8 3 Este 8 Noroeste 0 -- -- 85
2020-10-06 07:00:00 9.8 3 Nordeste 8 Norte 0 -- -- 83
2020-10-06 06:00:00 10.4 2 Nordeste 8 Sudeste 0 -- -- 82
2020-10-06 05:00:00 9.4 2 Oeste 5 Norte 0 -- -- 79
2020-10-06 04:00:00 8.2 0 Calma 8 Oeste 0 -- -- 73
2020-10-06 03:00:00 8.6 0 Calma 7 Norte 0 -- -- 71
2020-10-06 02:00:00 9.2 0 Calma 6 Sudoeste 0 -- -- 67
2020-10-06 01:00:00 9.9 0 Calma 5 Este 0 -- -- 65
2020-10-06 00:00:00 10.8 0 Calma 8 Sur 0 -- -- 63
2020-10-05 23:00:00 11.7 2 Norte 7 Noroeste 0 -- -- 57
2020-10-05 22:00:00 14 4 Noroeste 8 Noroeste 0 -- -- 54
2020-10-05 21:00:00 17.7 2 Sudoeste 12 Norte 0 -- -- 45
2020-10-05 20:00:00 21.9 8 Norte 17 Noroeste 0 -- -- 37
2020-10-05 19:00:00 23.8 11 Norte 23 Norte 0 -- -- 34
2020-10-05 18:00:00 24.9 12 Norte 26 Noroeste 0 -- -- 32
2020-10-05 17:00:00 24.9 12 Noroeste 33 Noroeste 0 -- -- 30
2020-10-05 16:00:00 25.4 14 Noroeste 27 Noroeste 0 -- -- 32
2020-10-05 15:00:00 23.3 15 Norte 28 Norte 0 -- -- 36
2020-10-05 14:00:00 22.3 9 Noroeste 31 Noroeste 0 -- -- 39
2020-10-05 13:00:00 21.3 12 Noroeste 25 Norte 0 -- -- 43
2020-10-05 12:00:00 19.1 11 Norte 22 Norte 0 -- -- 48
2020-10-05 11:00:00 17 17 Norte 28 Norte 0 -- -- 58
2020-10-05 10:00:00 14.9 8 Noroeste 17 Noroeste 0 -- -- 67
2020-10-05 09:00:00 11.8 2 Sudoeste 12 Oeste 0 -- -- 75
2020-10-05 08:00:00 11.8 7 Noroeste 15 Noroeste 0 -- -- 75
2020-10-05 07:00:00 11.8 5 Oeste 17 Noroeste 0 -- -- 72
2020-10-05 06:00:00 12.8 8 Oeste 15 Oeste 0 -- -- 69
2020-10-05 05:00:00 13 4 Oeste 12 Oeste 0 -- -- 67
2020-10-05 04:00:00 13 6 Oeste 13 Norte 0 -- -- 66
2020-10-05 03:00:00 13.5 5 Oeste 15 Oeste 0 -- -- 64
2020-10-05 02:00:00 14.9 8 Oeste 16 Noroeste 0 -- -- 61
2020-10-05 01:00:00 15.8 6 Oeste 14 Noroeste 0 -- -- 59
2020-10-05 00:00:00 14.6 8 Oeste 12 Oeste 0 -- -- 68
2020-10-04 23:00:00 12.9 5 Oeste 9 Sudoeste 0 -- -- 74
2020-10-04 22:00:00 15.4 2 Noroeste 16 Oeste 0 -- -- 68
2020-10-04 21:00:00 18 7 Noroeste 14 Oeste 0 -- -- 64
2020-10-04 20:00:00 20 5 Noroeste 28 Noroeste 0 -- -- 61
2020-10-04 19:00:00 23.3 16 Noroeste 28 Oeste 0 -- -- 49
2020-10-04 18:00:00 23.5 7 Sudeste 28 Sudoeste 0 -- -- 45
2020-10-04 17:00:00 23.8 15 Sudoeste 29 Oeste 0 -- -- 43
2020-10-04 16:00:00 23.6 11 Oeste 33 Oeste 0 -- -- 43
2020-10-04 15:00:00 22.4 14 Oeste 24 Sudoeste 0 -- -- 43
2020-10-04 14:00:00 20.6 14 Sudoeste 24 Sudoeste 0 -- -- 47
2020-10-04 13:00:00 19.7 9 Sudoeste 21 Sudoeste 0 -- -- 51
2020-10-04 12:00:00 18.2 9 Sur 18 Sudeste 0 -- -- 56
2020-10-04 11:00:00 15.4 5 Sudoeste 10 Oeste 0 -- -- 65
2020-10-04 10:00:00 11.4 0 Calma 3 Noroeste 0 -- -- 81
2020-10-04 09:00:00 5.8 3 Noroeste 4 Este 0 -- -- 94
2020-10-04 08:00:00 4.9 2 Sur 6 Sudoeste 0 -- -- 91
2020-10-04 07:00:00 4.6 0 Calma 4 Noroeste 0 -- -- 88
2020-10-04 06:00:00 5.6 2 Noroeste 8 Sur 0 -- -- 91
2020-10-04 05:00:00 4.7 2 Oeste 5 Norte 0 -- -- 89
2020-10-04 04:00:00 5.2 0 Calma 6 Norte 0 -- -- 85
2020-10-04 03:00:00 5.7 0 Calma 4 Norte 0 -- -- 83
2020-10-04 02:00:00 6.8 0 Calma 4 Norte 0 -- -- 82
2020-10-04 01:00:00 7.8 0 Calma 3 Norte 0 -- -- 75
2020-10-04 00:00:00 10 2 Norte 8 Norte 0 -- -- 70
2020-10-03 23:00:00 11.1 4 Noroeste 10 Oeste 0 -- -- 66
2020-10-03 22:00:00 12.3 7 Oeste 9 Oeste 0 -- -- 57
2020-10-03 21:00:00 15.3 4 Oeste 12 Noroeste 0 -- -- 49
2020-10-03 20:00:00 19.3 8 Noroeste 22 Oeste 0 -- -- 39
2020-10-03 19:00:00 21.6 12 Noroeste 27 Noroeste 0 -- -- 34
2020-10-03 18:00:00 22.8 14 Noroeste 29 Oeste 0 -- -- 31
2020-10-03 17:00:00 23.4 16 Noroeste 31 Noroeste 0 -- -- 30
2020-10-03 16:00:00 23.1 13 Noroeste 33 Noroeste 0 -- -- 30
2020-10-03 15:00:00 22.1 14 Noroeste 40 Oeste 0 -- -- 32
2020-10-03 14:00:00 20.6 10 Noroeste 30 Oeste 0 -- -- 34
2020-10-03 13:00:00 18.8 8 Norte 26 Norte 0 -- -- 43
2020-10-03 12:00:00 16.9 17 Norte 34 Noroeste 0 -- -- 51
2020-10-03 11:00:00 14.8 8 Noroeste 20 Norte 0 -- -- 66
2020-10-03 10:00:00 11 0 Calma 7 Oeste 0 -- -- 84
2020-10-03 09:00:00 5.1 3 Este 6 Sudeste 0 -- -- 95
2020-10-03 08:00:00 4.7 0 Calma 12 Oeste 0 -- -- 90
2020-10-03 07:00:00 5.2 6 Oeste 13 Oeste 0 -- -- 92
2020-10-03 06:00:00 5.7 4 Noroeste 8 Norte 0 -- -- 93
2020-10-03 05:00:00 6.3 0 Calma 8 Sur 0 -- -- 87
2020-10-03 04:00:00 7.1 3 Sur 9 Noroeste 0 -- -- 88
2020-10-03 03:00:00 7.7 6 Oeste 13 Noroeste 0 -- -- 83
2020-10-03 02:00:00 10 10 Noroeste 16 Oeste 0 -- -- 75
2020-10-03 01:00:00 11.2 8 Oeste 27 Noroeste 0 -- -- 70
2020-10-03 00:00:00 12.4 14 Noroeste 24 Noroeste 0 -- -- 66
2020-10-02 23:00:00 13.7 17 Oeste 31 Oeste 0 -- -- 62
2020-10-02 22:00:00 13.4 8 Oeste 26 Oeste 0 -- -- 69
2020-10-02 21:00:00 14.5 7 Noroeste 27 Oeste 0 -- -- 69
2020-10-02 20:00:00 15.8 14 Noroeste 41 Noroeste 0 -- -- 66
2020-10-02 19:00:00 16.6 18 Noroeste 47 Oeste 0 -- -- 68
2020-10-02 18:00:00 19 26 Noroeste 51 Noroeste 0.2 -- -- 69
2020-10-02 17:00:00 19.3 24 Noroeste 52 Oeste 0.2 -- -- 77
2020-10-02 16:00:00 19.1 22 Oeste 44 Oeste 4.2 -- -- 90
2020-10-02 15:00:00 19.9 21 Oeste 51 Sudoeste 0.4 -- -- 86
2020-10-02 14:00:00 20.9 32 Sudoeste 59 Sudoeste 0 -- -- 75
2020-10-02 13:00:00 18 22 Sudoeste 40 Oeste 0 -- -- 87
2020-10-02 12:00:00 17.9 24 Sudoeste 43 Oeste 0 -- -- 81
2020-10-02 11:00:00 16.6 18 Sudoeste 42 Sudoeste 0 -- -- 83
2020-10-02 10:00:00 15.7 17 Sudoeste 33 Sudoeste 0 -- -- 82
2020-10-02 09:00:00 15 10 Sudoeste 33 Sudoeste 0 -- -- 78
2020-10-02 08:00:00 15 11 Sudoeste 19 Sudoeste 0 -- -- 75
2020-10-02 07:00:00 13.9 11 Oeste 17 Sudoeste 0 -- -- 79
2020-10-02 06:00:00 11.9 4 Norte 7 Norte 0 -- -- 79
2020-10-02 05:00:00 13 2 Norte 5 Norte 0 -- -- 76
2020-10-02 04:00:00 14.4 0 Calma 10 Oeste 0 -- -- 73
2020-10-02 03:00:00 13.4 4 Oeste 9 Oeste 0 -- -- 73
2020-10-02 02:00:00 13.7 3 Oeste 6 Norte 0 -- -- 70
2020-10-02 01:00:00 14.9 4 Noroeste 6 Oeste 0 -- -- 69
2020-10-02 00:00:00 17.8 6 Oeste 13 Oeste 0 -- -- 62
2020-10-01 23:00:00 19.9 8 Oeste 15 Noroeste 0 -- -- 58
2020-10-01 22:00:00 21.7 10 Oeste 23 Oeste 0 -- -- 53
2020-10-01 21:00:00 22.8 8 Noroeste 15 Oeste 0 -- -- 51
2020-10-01 20:00:00 25.1 11 Oeste 28 Sudoeste 0 -- -- 47
2020-10-01 19:00:00 27.1 18 Sudoeste 34 Sudoeste 0 -- -- 39
2020-10-01 18:00:00 29.7 10 Oeste 33 Sudoeste 0 -- -- 37
2020-10-01 17:00:00 29.1 13 Oeste 29 Sudoeste 0 -- -- 35
2020-10-01 16:00:00 28.3 9 Sudoeste 19 Sudeste 0 -- -- 35
2020-10-01 15:00:00 27.2 7 Sudeste 15 Sudoeste 0 -- -- 40
2020-10-01 14:00:00 25.8 8 Sudoeste 18 Sudoeste 0 -- -- 43
2020-10-01 13:00:00 23.8 8 Sudoeste 14 Sur 0 -- -- 44
2020-10-01 12:00:00 21.8 5 Nordeste 12 Este 0 -- -- 50
2020-10-01 11:00:00 19.8 6 Este 12 Nordeste 0 -- -- 58
2020-10-01 10:00:00 13.8 0 Calma 6 Sur 0 -- -- 82
2020-10-01 09:00:00 8.4 3 Norte 5 Norte 0 -- -- 90
2020-10-01 08:00:00 8.4 3 Oeste 4 Oeste 0 -- -- 88
2020-10-01 07:00:00 8.4 3 Oeste 3 Noroeste 0 -- -- 88
2020-10-01 06:00:00 9.6 0 Calma 6 Sudoeste 0 -- -- 86
2020-10-01 05:00:00 10.2 0 Calma 4 Noroeste 0 -- -- 84
2020-10-01 04:00:00 11.2 2 Norte 4 Norte 0 -- -- 86
2020-10-01 03:00:00 12.4 0 Calma 6 Noroeste 0 -- -- 86
2020-10-01 02:00:00 13.6 2 Sur 8 Noroeste 0 -- -- 81
2020-10-01 01:00:00 15.3 2 Noroeste 8 Noroeste 0 -- -- 73
2020-10-01 00:00:00 16.6 0 Calma 4 Sudeste 0 -- -- 68